Time;durP1;ratioP1;P1;durP2;ratioP2;P2;SDS_P1;SDS_P2;PMS_P1;PMS_P2;Temp;Humidity;BMP_temperature;BMP_pressure;BME280_temperature;BME280_humidity;BME280_pressure;Samples;Min_cycle;Max_cycle;Signal;HPM_P1;HPM_P2
2024/04/14 00:02:09;;;;;;;3.70;1.60;;;24.40;51.20;;;;;;11137790;26;20004;-42
2024/04/14 00:07:15;;;;;;;4.88;1.75;;;24.40;50.40;;;;;;11137765;26;20015;-42
2024/04/14 00:12:21;;;;;;;3.60;1.50;;;24.50;49.60;;;;;;11137387;26;20366;-42
2024/04/14 00:17:26;;;;;;;4.75;1.52;;;24.50;49.60;;;;;;11137632;26;20082;-41
2024/04/14 00:22:30;;;;;;;5.63;1.70;;;24.50;49.30;;;;;;11137655;26;19997;-42
2024/04/14 00:27:33;;;;;;;5.10;1.52;;;24.30;49.20;;;;;;11137804;26;20513;-42
2024/04/14 00:32:40;;;;;;;5.55;1.90;;;24.30;49.20;;;;;;11136856;26;20014;-42
2024/04/14 00:37:43;;;;;;;6.15;1.80;;;24.30;49.20;;;;;;11137482;26;20077;-41
2024/04/14 00:42:47;;;;;;;5.75;1.48;;;24.30;49.20;;;;;;11136928;26;20000;-43
2024/04/14 00:47:53;;;;;;;5.25;1.80;;;24.20;49.50;;;;;;11136603;26;20004;-41
2024/04/14 00:52:56;;;;;;;5.85;1.80;;;24.20;49.40;;;;;;11136739;26;19996;-42
2024/04/14 00:58:00;;;;;;;7.40;2.00;;;24.30;49.20;;;;;;11136018;26;19996;-42
2024/04/14 01:03:06;;;;;;;5.40;1.67;;;24.30;49.10;;;;;;11136774;26;20015;-43
2024/04/14 01:08:09;;;;;;;6.05;2.00;;;24.20;49.30;;;;;;11136132;26;20004;-42
2024/04/14 01:13:12;;;;;;;3.70;1.60;;;24.10;49.70;;;;;;11136233;26;20012;-42
2024/04/14 01:18:18;;;;;;;3.25;1.58;;;24.10;49.40;;;;;;11135856;26;20465;-44
2024/04/14 01:23:22;;;;;;;6.30;1.83;;;24.20;49.50;;;;;;11134879;26;20014;-42
2024/04/14 01:28:28;;;;;;;6.25;1.88;;;24.20;49.80;;;;;;11135467;26;20008;-42
2024/04/14 01:33:32;;;;;;;4.55;1.73;;;24.20;49.80;;;;;;11135054;26;20015;-42
2024/04/14 01:38:35;;;;;;;4.35;1.65;;;24.30;51.20;;;;;;11135216;26;20012;-42
2024/04/14 01:43:41;;;;;;;5.40;2.15;;;24.20;51.50;;;;;;11135491;26;20349;-42
2024/04/14 01:48:44;;;;;;;4.68;1.70;;;24.10;51.10;;;;;;11135042;26;20008;-46
2024/04/14 01:53:48;;;;;;;4.97;1.88;;;24.10;50.90;;;;;;11134538;26;20004;-42
2024/04/14 01:58:53;;;;;;;4.90;1.90;;;24.10;50.80;;;;;;11134439;26;20000;-42
2024/04/14 02:03:57;;;;;;;5.13;1.80;;;23.90;50.50;;;;;;11134220;26;20000;-42
2024/04/14 02:09:00;;;;;;;7.00;2.17;;;24.00;49.80;;;;;;11134056;26;20008;-42
2024/04/14 02:14:06;;;;;;;4.25;1.75;;;24.10;50.50;;;;;;11134407;26;20020;-42
2024/04/14 02:19:09;;;;;;;6.32;2.00;;;24.00;50.00;;;;;;11133781;26;20011;-42
2024/04/14 02:24:12;;;;;;;5.28;2.08;;;23.90;49.40;;;;;;11133848;26;20027;-42
2024/04/14 02:29:18;;;;;;;6.13;1.80;;;24.00;49.00;;;;;;11133373;26;20007;-41
2024/04/14 02:34:22;;;;;;;5.10;1.80;;;23.90;49.00;;;;;;11133554;26;20018;-42
2024/04/14 02:39:25;;;;;;;6.28;1.98;;;24.00;48.30;;;;;;11140489;26;20000;-42
2024/04/14 02:44:31;;;;;;;7.00;1.55;;;24.00;47.90;;;;;;11140071;26;20000;-42
2024/04/14 02:49:34;;;;;;;3.40;1.50;;;23.80;47.60;;;;;;11140434;26;20008;-42
2024/04/14 02:54:37;;;;;;;5.97;1.45;;;23.80;47.40;;;;;;11139907;26;20520;-42
2024/04/14 02:59:43;;;;;;;5.97;1.75;;;23.80;47.20;;;;;;11139985;26;20019;-42
2024/04/14 03:04:49;;;;;;;3.03;1.50;;;23.70;47.40;;;;;;11139395;26;20016;-42
2024/04/14 03:09:55;;;;;;;3.30;1.30;;;23.40;51.80;;;;;;11139584;26;20008;-42
2024/04/14 03:15:00;;;;;;;4.90;1.65;;;23.50;50.40;;;;;;11139426;26;20014;-42
2024/04/14 03:20:05;;;;;;;4.30;1.60;;;23.20;48.10;;;;;;11139270;26;20503;-42
2024/04/14 03:25:09;;;;;;;5.10;1.70;;;23.20;46.70;;;;;;11138965;26;20019;-42
2024/04/14 03:30:15;;;;;;;4.30;1.48;;;23.20;46.80;;;;;;11125210;26;20008;-42
2024/04/14 03:35:18;;;;;;;4.97;1.52;;;23.20;46.50;;;;;;11138802;26;20012;-42
2024/04/14 03:40:22;;;;;;;6.35;1.40;;;23.20;46.00;;;;;;11138617;26;20047;-42
2024/04/14 03:45:28;;;;;;;6.65;1.55;;;23.10;45.40;;;;;;11138649;26;19997;-42
2024/04/14 03:50:31;;;;;;;7.90;1.60;;;23.20;45.60;;;;;;11138013;26;20420;-44
2024/04/14 03:55:34;;;;;;;6.90;1.55;;;23.10;45.90;;;;;;11138138;26;20010;-42
2024/04/14 04:00:43;;;;;;;3.70;1.42;;;23.10;46.20;;;;;;11138357;26;20000;-44
2024/04/14 04:05:54;;;;;;;4.50;1.35;;;23.20;46.50;;;;;;11137908;26;20468;-42
2024/04/14 04:11:02;;;;;;;4.95;1.63;;;23.20;44.90;;;;;;11137876;26;20015;-43
2024/04/14 04:16:08;;;;;;;4.05;1.50;;;23.10;45.00;;;;;;11137648;26;20519;-42
2024/04/14 04:21:12;;;;;;;4.70;1.58;;;23.00;45.10;;;;;;11137580;26;20012;-41
2024/04/14 04:26:15;;;;;;;5.03;1.55;;;23.20;44.90;;;;;;11136440;26;20014;-41
2024/04/14 04:31:21;;;;;;;5.85;1.88;;;23.10;44.10;;;;;;11135478;26;20000;-42
2024/04/14 04:36:24;;;;;;;7.95;1.65;;;23.10;44.50;;;;;;11137299;26;20015;-45
2024/04/14 04:41:27;;;;;;;5.70;1.83;;;23.00;44.90;;;;;;11136801;26;19996;-43
2024/04/14 04:46:33;;;;;;;3.80;1.20;;;23.00;44.90;;;;;;11136715;26;20007;-48
2024/04/14 04:51:36;;;;;;;7.05;1.77;;;23.00;44.50;;;;;;11136742;26;19996;-42
2024/04/14 04:56:40;;;;;;;3.78;1.40;;;23.40;43.90;;;;;;11136408;26;20453;-42
2024/04/14 05:01:46;;;;;;;6.10;1.55;;;23.30;44.30;;;;;;11135280;26;20019;-42
2024/04/14 05:06:50;;;;;;;7.03;1.83;;;23.40;44.50;;;;;;11136261;26;20000;-42
2024/04/14 05:11:53;;;;;;;6.10;1.30;;;23.50;44.30;;;;;;11136227;26;20004;-42
2024/04/14 05:16:59;;;;;;;6.32;1.38;;;24.10;43.60;;;;;;11135421;26;20001;-43
2024/04/14 05:22:05;;;;;;;6.93;1.50;;;24.30;43.30;;;;;;11134406;26;20015;-42
2024/04/14 05:27:09;;;;;;;15.93;1.95;;;24.50;42.90;;;;;;11134278;26;20092;-43
2024/04/14 05:32:15;;;;;;;9.82;1.70;;;24.60;42.70;;;;;;11135033;26;20078;-42
2024/04/14 05:37:19;;;;;;;14.60;1.73;;;24.40;42.70;;;;;;11135559;26;20015;-42
2024/04/14 05:42:22;;;;;;;9.20;1.63;;;24.10;43.60;;;;;;11134949;26;20000;-41
2024/04/14 05:47:28;;;;;;;8.65;1.63;;;24.10;44.00;;;;;;11134741;26;20000;-42
2024/04/14 05:52:31;;;;;;;10.02;1.88;;;24.40;44.40;;;;;;11134764;26;20000;-42
2024/04/14 05:57:35;;;;;;;10.73;1.65;;;24.60;44.70;;;;;;11134509;26;20012;-42
2024/04/14 06:02:42;;;;;;;13.85;2.05;;;24.40;45.30;;;;;;11134609;26;20073;-42
2024/04/14 06:07:48;;;;;;;12.52;1.85;;;24.80;45.20;;;;;;11133854;26;20382;-42
2024/04/14 06:12:51;;;;;;;8.38;1.77;;;24.80;44.80;;;;;;11139629;26;20004;-42
2024/04/14 06:17:57;;;;;;;9.57;2.00;;;24.30;43.00;;;;;;11140645;26;20015;-41
2024/04/14 06:23:00;;;;;;;18.67;2.25;;;24.10;42.60;;;;;;11140625;26;20019;-41
2024/04/14 06:28:03;;;;;;;8.57;2.15;;;24.70;41.20;;;;;;11140400;26;20015;-41
2024/04/14 06:33:09;;;;;;;9.35;2.03;;;24.20;41.20;;;;;;11139940;26;20004;-43
2024/04/14 06:38:12;;;;;;;8.65;2.00;;;24.10;41.40;;;;;;11140750;26;20014;-41
2024/04/14 06:43:16;;;;;;;12.52;2.53;;;23.70;40.30;;;;;;11140156;26;20415;-41
2024/04/14 06:48:22;;;;;;;10.38;2.08;;;24.10;40.00;;;;;;11139826;26;20073;-42
2024/04/14 06:53:25;;;;;;;8.25;2.28;;;24.00;38.10;;;;;;11139584;26;20012;-42
2024/04/14 06:58:28;;;;;;;9.15;2.70;;;23.60;38.20;;;;;;11140023;26;20009;-42
2024/04/14 07:03:34;;;;;;;12.38;2.65;;;23.40;38.70;;;;;;11139953;26;20015;-41
2024/04/14 07:08:39;;;;;;;11.13;2.65;;;23.60;39.20;;;;;;11139368;26;20346;-41
2024/04/14 07:13:42;;;;;;;9.25;2.10;;;24.30;40.70;;;;;;11139349;26;20149;-42
2024/04/14 07:18:50;;;;;;;7.95;2.22;;;24.00;38.40;;;;;;11138962;26;20011;-42
2024/04/14 07:23:53;;;;;;;22.00;6.03;;;23.50;38.90;;;;;;11137810;26;20404;-45
2024/04/14 07:28:56;;;;;;;21.70;5.10;;;23.80;43.10;;;;;;11138696;26;19997;-42
2024/04/14 07:34:03;;;;;;;17.52;4.07;;;23.70;44.50;;;;;;11138524;26;20014;-42
2024/04/14 07:39:07;;;;;;;13.20;3.42;;;23.50;43.30;;;;;;11139183;26;20012;-42
2024/04/14 07:44:10;;;;;;;9.63;3.40;;;23.40;41.50;;;;;;11138400;26;20470;-44
2024/04/14 07:49:16;;;;;;;8.57;3.70;;;23.50;40.90;;;;;;11138207;26;20051;-42
2024/04/14 07:54:19;;;;;;;16.33;4.47;;;23.60;41.00;;;;;;11138037;26;20008;-42
2024/04/14 07:59:23;;;;;;;12.63;4.72;;;23.60;42.90;;;;;;11137904;26;20352;-41
2024/04/14 08:04:29;;;;;;;18.98;5.28;;;23.60;43.00;;;;;;11137761;26;20034;-42
2024/04/14 08:09:32;;;;;;;14.10;3.35;;;24.00;43.80;;;;;;11137799;26;20460;-45
2024/04/14 08:14:35;;;;;;;15.00;2.88;;;23.90;42.50;;;;;;11137595;26;20000;-41
2024/04/14 08:19:42;;;;;;;20.10;3.05;;;24.10;41.50;;;;;;11137578;26;20074;-41
2024/04/14 08:24:45;;;;;;;14.95;2.50;;;24.10;41.50;;;;;;11137882;26;20452;-41
2024/04/14 08:29:49;;;;;;;22.25;2.45;;;24.40;42.60;;;;;;11137926;26;20078;-42
2024/04/14 08:34:55;;;;;;;16.35;2.45;;;24.60;49.70;;;;;;11136583;26;20070;-41
2024/04/14 08:39:59;;;;;;;12.15;2.40;;;25.00;48.70;;;;;;11136863;26;20350;-42
2024/04/14 08:45:02;;;;;;;7.93;2.15;;;25.00;48.10;;;;;;11136766;26;20077;-44
2024/04/14 08:50:09;;;;;;;8.32;2.13;;;24.50;48.70;;;;;;11137039;26;20004;-42
2024/04/14 08:55:13;;;;;;;9.43;2.22;;;24.10;48.60;;;;;;11136575;26;20077;-41
2024/04/14 09:00:18;;;;;;;5.82;1.85;;;24.10;47.30;;;;;;11136567;26;20473;-42
2024/04/14 09:05:24;;;;;;;5.25;1.88;;;24.10;45.10;;;;;;11136121;26;20012;-43
2024/04/14 09:10:28;;;;;;;10.75;2.25;;;24.10;43.80;;;;;;11136000;26;20454;-47
2024/04/14 09:15:31;;;;;;;10.15;1.90;;;24.20;37.60;;;;;;11136284;26;20087;-42
2024/04/14 09:20:37;;;;;;;13.55;2.00;;;24.20;36.40;;;;;;11135640;26;20008;-42
2024/04/14 09:25:40;;;;;;;5.22;1.80;;;24.10;35.60;;;;;;11135642;26;20015;-41
2024/04/14 09:30:43;;;;;;;10.15;1.90;;;24.00;37.30;;;;;;11135106;26;20454;-41
2024/04/14 09:35:51;;;;;;;8.75;1.63;;;24.00;37.50;;;;;;11135257;26;20081;-42
2024/04/14 09:40:55;;;;;;;7.95;1.50;;;23.80;38.40;;;;;;11134922;26;20000;-41
2024/04/14 09:45:58;;;;;;;8.20;1.98;;;23.70;39.30;;;;;;11134058;26;20000;-42
2024/04/14 09:51:04;;;;;;;10.15;1.90;;;23.60;41.20;;;;;;11134017;26;20349;-41
2024/04/14 09:56:08;;;;;;;5.90;1.50;;;23.50;41.10;;;;;;11127781;26;20008;-42
2024/04/14 10:01:13;;;;;;;5.60;1.73;;;23.50;41.10;;;;;;11128080;26;20015;-42
2024/04/14 10:06:19;;;;;;;4.53;1.40;;;23.70;41.40;;;;;;11127737;26;20020;-42
2024/04/14 10:11:22;;;;;;;5.72;1.67;;;23.60;42.20;;;;;;11134273;26;20008;-41
2024/04/14 10:16:26;;;;;;;4.70;1.40;;;23.60;43.00;;;;;;11133735;26;20356;-41
2024/04/14 10:21:33;;;;;;;3.30;1.02;;;23.60;43.90;;;;;;11133784;26;19996;-41
2024/04/14 10:26:36;;;;;;;7.15;1.40;;;23.50;43.70;;;;;;11133227;26;20008;-42
2024/04/14 10:31:40;;;;;;;4.80;1.50;;;23.80;39.20;;;;;;11126515;26;20015;-42
2024/04/14 10:36:46;;;;;;;8.70;1.92;;;24.00;37.40;;;;;;11127018;26;20030;-44
2024/04/14 10:41:49;;;;;;;8.30;1.65;;;23.90;36.60;;;;;;11126902;26;20012;-43
2024/04/14 10:46:53;;;;;;;6.75;1.60;;;23.90;37.30;;;;;;11131682;26;20405;-42
2024/04/14 10:51:59;;;;;;;6.88;1.40;;;23.70;39.00;;;;;;11132647;26;20074;-41
2024/04/14 10:57:02;;;;;;;15.00;1.55;;;23.80;38.20;;;;;;11134087;26;19997;-42
2024/04/14 11:02:06;;;;;;;7.90;1.75;;;23.60;38.70;;;;;;11140309;26;20016;-42
2024/04/14 11:07:12;;;;;;;8.85;1.38;;;23.40;38.90;;;;;;11139733;26;19997;-41
2024/04/14 11:12:15;;;;;;;16.10;1.55;;;23.60;39.30;;;;;;11139666;26;20000;-41
2024/04/14 11:17:19;;;;;;;8.45;1.27;;;23.60;39.40;;;;;;11139273;26;20339;-42
2024/04/14 11:22:25;;;;;;;9.82;1.67;;;23.90;38.80;;;;;;11139253;26;20369;-42
2024/04/14 11:27:28;;;;;;;8.27;1.52;;;23.60;39.20;;;;;;11138778;26;20043;-42
2024/04/14 11:32:33;;;;;;;8.05;1.42;;;23.70;38.90;;;;;;11134188;26;20012;-45
2024/04/14 11:37:43;;;;;;;7.93;1.50;;;23.80;38.60;;;;;;11132263;26;20446;-45
2024/04/14 11:42:47;;;;;;;4.77;1.50;;;24.00;37.90;;;;;;11131872;26;20008;-44
2024/04/14 11:47:50;;;;;;;6.30;1.42;;;24.10;37.20;;;;;;11136136;26;20639;-41
2024/04/14 11:52:56;;;;;;;3.28;1.27;;;24.10;37.30;;;;;;11138409;26;20004;-41
2024/04/14 11:58:00;;;;;;;7.40;1.55;;;24.00;37.10;;;;;;11138301;26;20363;-41
2024/04/14 12:03:03;;;;;;;4.57;1.40;;;24.10;36.50;;;;;;11138772;26;20000;-42
2024/04/14 12:08:09;;;;;;;3.65;1.13;;;24.10;36.30;;;;;;11137393;26;20008;-42
2024/04/14 12:13:13;;;;;;;4.78;1.10;;;24.30;35.90;;;;;;11138071;26;20008;-41
2024/04/14 12:18:18;;;;;;;3.90;1.25;;;24.50;35.40;;;;;;11137764;26;20015;-42
2024/04/14 12:23:23;;;;;;;4.65;1.40;;;24.50;35.20;;;;;;11137707;26;20015;-46
2024/04/14 12:28:27;;;;;;;3.78;1.30;;;24.40;35.20;;;;;;11137606;26;20017;-41
2024/04/14 12:33:30;;;;;;;3.60;1.23;;;24.60;34.80;;;;;;11136909;26;20004;-44
2024/04/14 12:38:36;;;;;;;4.80;1.10;;;23.80;36.00;;;;;;11137578;26;20012;-42
2024/04/14 12:43:39;;;;;;;3.42;1.23;;;23.60;36.70;;;;;;11137071;26;19996;-41
2024/04/14 12:48:44;;;;;;;3.83;1.40;;;23.90;36.60;;;;;;11136986;26;20011;-41
2024/04/14 12:53:50;;;;;;;2.05;1.00;;;24.10;38.20;;;;;;11136699;26;20462;-42
2024/04/14 12:58:54;;;;;;;5.20;1.30;;;24.50;39.80;;;;;;11136666;26;19996;-41
2024/04/14 13:03:57;;;;;;;3.25;1.30;;;24.70;39.30;;;;;;11136325;26;20361;-41
2024/04/14 13:09:03;;;;;;;6.15;1.48;;;24.70;38.90;;;;;;11136361;26;20074;-42
2024/04/14 13:14:06;;;;;;;3.63;1.38;;;24.80;38.80;;;;;;11136486;26;20011;-41
2024/04/14 13:19:10;;;;;;;4.57;1.25;;;24.80;38.70;;;;;;11134612;26;20472;-42
2024/04/14 13:24:16;;;;;;;2.72;1.10;;;24.80;39.00;;;;;;11136031;26;20014;-45
2024/04/14 13:29:19;;;;;;;4.28;1.38;;;24.90;38.80;;;;;;11135625;26;20008;-42
2024/04/14 13:34:22;;;;;;;2.83;0.90;;;25.00;38.30;;;;;;11134723;26;20010;-42
2024/04/14 13:39:28;;;;;;;3.80;1.25;;;24.90;38.20;;;;;;11135838;26;20000;-42
2024/04/14 13:44:32;;;;;;;3.17;1.00;;;25.20;37.80;;;;;;11135139;26;20063;-44
2024/04/14 13:49:35;;;;;;;3.35;1.30;;;25.30;37.50;;;;;;11135391;26;20004;-42
2024/04/14 13:54:41;;;;;;;4.47;1.10;;;25.10;37.00;;;;;;11134788;26;20013;-41
2024/04/14 13:59:44;;;;;;;4.20;1.10;;;24.90;36.50;;;;;;11134833;26;20012;-42
2024/04/14 14:04:48;;;;;;;3.92;1.23;;;24.90;35.90;;;;;;11134377;26;20009;-44
2024/04/14 14:09:54;;;;;;;2.72;1.00;;;25.10;35.40;;;;;;11134311;26;20400;-41
2024/04/14 14:14:57;;;;;;;2.83;1.10;;;25.30;35.30;;;;;;11134598;26;20015;-43
2024/04/14 14:20:00;;;;;;;3.53;1.10;;;25.40;36.20;;;;;;11133874;26;20016;-42
2024/04/14 14:25:06;;;;;;;2.85;1.20;;;25.20;36.20;;;;;;11133825;26;20015;-42
2024/04/14 14:30:10;;;;;;;4.82;1.35;;;25.20;36.80;;;;;;11133659;26;20015;-42
2024/04/14 14:40:35;;;;;;;3.35;1.20;;;25.10;38.40;;;;;;11145887;26;20055;-41
2024/04/14 14:45:40;;;;;;;4.05;1.40;;;25.30;38.50;;;;;;11140308;26;20008;-42
2024/04/14 14:50:44;;;;;;;5.32;1.42;;;25.40;38.70;;;;;;11140123;26;20015;-42
2024/04/14 14:55:49;;;;;;;4.93;1.50;;;25.40;38.80;;;;;;11139879;26;20023;-42
2024/04/14 15:00:54;;;;;;;4.15;1.60;;;25.70;40.90;;;;;;11140160;26;20012;-42
2024/04/14 15:05:57;;;;;;;5.03;1.40;;;25.80;40.50;;;;;;11139827;26;20004;-42
2024/04/14 15:11:03;;;;;;;8.95;1.70;;;26.10;39.70;;;;;;11139708;26;20005;-42
2024/04/14 15:16:08;;;;;;;5.90;1.70;;;26.60;38.10;;;;;;11139405;26;20014;-42
2024/04/14 15:21:11;;;;;;;4.97;1.67;;;26.50;37.40;;;;;;11139400;26;20010;-41
2024/04/14 15:26:17;;;;;;;4.32;1.40;;;26.50;36.80;;;;;;11139155;26;20008;-42
2024/04/14 15:31:20;;;;;;;5.30;1.42;;;26.40;36.60;;;;;;11138789;26;20031;-42
2024/04/14 15:36:23;;;;;;;3.85;1.35;;;26.50;35.80;;;;;;11138885;26;20012;-42
2024/04/14 15:41:29;;;;;;;4.72;1.30;;;26.70;35.00;;;;;;11138743;26;20454;-41
2024/04/14 15:46:32;;;;;;;3.00;1.30;;;26.70;35.20;;;;;;11138008;26;20004;-42
2024/04/14 15:51:36;;;;;;;5.38;1.30;;;26.50;34.90;;;;;;11138979;26;20015;-42
2024/04/14 15:56:41;;;;;;;3.67;1.20;;;26.50;35.10;;;;;;11138400;26;20000;-45
2024/04/14 16:01:45;;;;;;;3.35;1.10;;;26.60;34.00;;;;;;11138580;26;20016;-42
2024/04/14 16:06:49;;;;;;;4.68;1.48;;;26.30;34.00;;;;;;11138045;26;20357;-42
2024/04/14 16:11:55;;;;;;;6.57;1.23;;;26.40;34.10;;;;;;11137913;26;20434;-41
2024/04/14 16:16:58;;;;;;;4.75;1.35;;;26.70;33.10;;;;;;11137777;26;19997;-41
2024/04/14 16:22:01;;;;;;;3.00;1.48;;;26.90;32.60;;;;;;11137784;26;19996;-41
2024/04/14 16:27:07;;;;;;;3.58;1.10;;;26.90;32.30;;;;;;11137978;26;20012;-42
2024/04/14 16:32:11;;;;;;;6.40;1.38;;;27.00;32.20;;;;;;11136719;26;20012;-42
2024/04/14 16:37:14;;;;;;;5.38;1.52;;;27.10;32.20;;;;;;11137359;26;20014;-44
2024/04/14 16:42:20;;;;;;;3.88;1.15;;;27.00;32.10;;;;;;11137059;26;20015;-41
2024/04/14 16:47:23;;;;;;;4.38;1.50;;;26.80;32.60;;;;;;11136844;26;19997;-42
2024/04/14 16:52:26;;;;;;;4.28;1.20;;;26.70;33.00;;;;;;11136762;26;20346;-42
2024/04/14 16:57:32;;;;;;;4.63;1.38;;;26.70;32.80;;;;;;11136474;26;20013;-42
2024/04/14 17:02:36;;;;;;;4.72;1.30;;;26.70;32.50;;;;;;11136794;26;20015;-42
2024/04/14 17:07:39;;;;;;;2.63;1.20;;;26.70;32.30;;;;;;11136239;26;20008;-42
2024/04/14 17:12:45;;;;;;;4.13;1.35;;;26.70;32.40;;;;;;11136208;26;20008;-42
2024/04/14 17:17:48;;;;;;;5.38;1.83;;;26.60;32.70;;;;;;11135935;26;20008;-42
2024/04/14 17:22:51;;;;;;;4.75;1.30;;;26.50;32.40;;;;;;11136055;26;20011;-42
2024/04/14 17:27:58;;;;;;;3.20;1.13;;;26.70;32.00;;;;;;11135652;26;20016;-42
2024/04/14 17:33:01;;;;;;;5.05;1.50;;;26.60;32.40;;;;;;11135201;26;20014;-42
2024/04/14 17:38:05;;;;;;;6.47;1.83;;;26.70;32.40;;;;;;11135504;26;20004;-42
2024/04/14 17:43:11;;;;;;;5.30;1.70;;;26.80;32.70;;;;;;11135204;26;20460;-42
2024/04/14 17:48:14;;;;;;;3.72;1.23;;;26.50;32.40;;;;;;11135197;26;20054;-42
2024/04/14 17:53:18;;;;;;;8.98;1.75;;;26.30;32.70;;;;;;11134641;26;20001;-41
2024/04/14 17:58:23;;;;;;;8.52;2.05;;;26.20;33.40;;;;;;11134760;26;20011;-41
2024/04/14 18:03:28;;;;;;;5.32;1.80;;;25.60;32.90;;;;;;11134878;26;20012;-42
2024/04/14 18:08:31;;;;;;;8.13;1.65;;;25.50;34.10;;;;;;11139407;26;20000;-42
2024/04/14 18:13:37;;;;;;;24.10;2.28;;;25.20;34.60;;;;;;11141432;26;20082;-41
2024/04/14 18:18:40;;;;;;;12.20;2.00;;;24.90;35.90;;;;;;11140813;26;20011;-41
2024/04/14 18:23:44;;;;;;;8.15;1.77;;;25.10;35.10;;;;;;11140188;26;20041;-41
2024/04/14 18:28:50;;;;;;;6.88;1.48;;;24.70;36.50;;;;;;11138513;26;20575;-42
2024/04/14 18:33:53;;;;;;;7.57;1.80;;;24.70;36.60;;;;;;11139942;26;20001;-42
2024/04/14 18:38:56;;;;;;;7.10;1.60;;;24.90;36.40;;;;;;11140675;26;19996;-41
2024/04/14 18:44:02;;;;;;;7.95;1.80;;;24.90;37.20;;;;;;11140236;26;20347;-43
2024/04/14 18:49:06;;;;;;;8.25;1.75;;;24.70;37.50;;;;;;11140384;26;20000;-41
2024/04/14 18:54:09;;;;;;;9.25;1.58;;;24.70;37.60;;;;;;11139967;26;20012;-41
2024/04/14 18:59:15;;;;;;;5.90;1.38;;;24.70;37.70;;;;;;11140040;26;20334;-43
2024/04/14 19:04:18;;;;;;;5.47;1.17;;;24.60;37.30;;;;;;11139709;26;20008;-43
2024/04/14 19:09:21;;;;;;;3.70;1.60;;;24.70;37.70;;;;;;11139676;26;20424;-42
2024/04/14 19:14:27;;;;;;;7.50;1.75;;;24.60;37.70;;;;;;11139722;26;20000;-42
2024/04/14 19:19:30;;;;;;;7.40;1.50;;;24.70;37.20;;;;;;11138119;26;20016;-42
2024/04/14 19:24:34;;;;;;;5.78;1.13;;;24.80;37.30;;;;;;11139754;26;20016;-42
2024/04/14 19:29:39;;;;;;;4.88;1.15;;;24.70;37.40;;;;;;11139231;26;20424;-46
2024/04/14 19:34:43;;;;;;;7.38;1.40;;;24.60;37.90;;;;;;11138843;26;20012;-42
2024/04/14 19:39:48;;;;;;;3.60;1.40;;;24.50;38.70;;;;;;11139508;26;20476;-42
2024/04/14 19:44:53;;;;;;;20.15;3.92;;;24.50;38.70;;;;;;11138746;26;20540;-46
2024/04/14 19:49:57;;;;;;;13.73;2.97;;;24.60;39.10;;;;;;11139044;26;20019;-42
2024/04/14 19:55:01;;;;;;;14.85;2.90;;;24.60;40.00;;;;;;11138426;26;20011;-42
2024/04/14 20:00:09;;;;;;;8.73;2.40;;;24.60;40.60;;;;;;11138338;26;20011;-45
2024/04/14 20:05:12;;;;;;;10.90;2.42;;;24.60;41.10;;;;;;11138146;26;20032;-42
2024/04/14 20:10:15;;;;;;;8.02;2.33;;;24.50;42.20;;;;;;11138010;26;20487;-42
2024/04/14 20:15:22;;;;;;;6.10;2.45;;;24.60;42.80;;;;;;11138331;26;20012;-42
2024/04/14 20:20:25;;;;;;;10.38;2.30;;;24.70;43.00;;;;;;11137718;26;20000;-42
2024/04/14 20:25:29;;;;;;;8.23;2.40;;;24.70;43.50;;;;;;11138275;26;20015;-42
2024/04/14 20:30:34;;;;;;;8.43;2.40;;;24.50;44.00;;;;;;11136816;26;20016;-45
2024/04/14 20:35:38;;;;;;;4.78;1.70;;;24.30;41.60;;;;;;11137152;26;20015;-42
2024/04/14 20:40:43;;;;;;;7.18;2.28;;;24.50;45.30;;;;;;11137129;26;20055;-41
2024/04/14 20:45:49;;;;;;;6.68;1.92;;;24.50;44.40;;;;;;11137688;26;20086;-43
2024/04/14 20:50:52;;;;;;;6.10;1.80;;;24.40;43.30;;;;;;11137484;26;20011;-42
2024/04/14 20:55:56;;;;;;;5.53;1.67;;;24.50;41.30;;;;;;11136063;26;20019;-42
2024/04/14 21:01:05;;;;;;;5.78;1.70;;;24.60;41.40;;;;;;11134422;26;20059;-42
2024/04/14 21:06:09;;;;;;;5.05;1.65;;;24.70;41.00;;;;;;11136596;26;19996;-42
2024/04/14 21:11:12;;;;;;;6.70;1.80;;;24.80;40.70;;;;;;11136412;26;20015;-41
2024/04/14 21:16:18;;;;;;;3.83;1.60;;;24.90;40.60;;;;;;11136750;26;20008;-42
2024/04/14 21:21:21;;;;;;;6.45;1.60;;;24.80;40.80;;;;;;11136056;26;20416;-45
2024/04/14 21:26:25;;;;;;;8.50;1.77;;;24.80;40.90;;;;;;11136132;26;20015;-41
2024/04/14 21:31:31;;;;;;;8.05;1.77;;;24.60;41.40;;;;;;11135321;26;20001;-43
2024/04/14 21:36:34;;;;;;;6.10;1.50;;;24.40;41.80;;;;;;11135765;26;20062;-45
2024/04/14 21:41:37;;;;;;;4.80;1.58;;;24.40;41.70;;;;;;11134893;26;20008;-41
2024/04/14 21:46:43;;;;;;;4.97;1.63;;;24.30;42.00;;;;;;11135207;26;20019;-42
2024/04/14 21:51:46;;;;;;;4.97;1.55;;;24.50;41.70;;;;;;11135027;26;20792;-41
2024/04/14 21:56:49;;;;;;;4.78;1.63;;;24.60;41.30;;;;;;11134802;26;20014;-42
2024/04/14 22:01:55;;;;;;;2.22;1.38;;;24.80;40.90;;;;;;11135142;26;20012;-43
2024/04/14 22:06:59;;;;;;;9.52;1.50;;;24.80;40.70;;;;;;11134720;26;20001;-41
2024/04/14 22:12:02;;;;;;;3.47;1.30;;;24.90;40.40;;;;;;11134309;26;20036;-41
2024/04/14 22:17:09;;;;;;;3.35;1.40;;;24.80;40.50;;;;;;11134094;26;20011;-42
2024/04/14 22:22:13;;;;;;;4.18;1.35;;;24.80;40.50;;;;;;11134229;26;20008;-42
2024/04/14 22:27:16;;;;;;;2.95;1.42;;;24.60;40.90;;;;;;11134254;26;20064;-41
2024/04/14 22:32:22;;;;;;;3.33;1.50;;;24.50;40.90;;;;;;11133241;26;20428;-43
2024/04/14 22:37:25;;;;;;;4.32;1.80;;;24.50;41.00;;;;;;11133693;26;20015;-42
2024/04/14 22:42:29;;;;;;;3.55;1.70;;;24.30;41.50;;;;;;11133280;26;20423;-42
2024/04/14 22:47:35;;;;;;;2.58;1.30;;;24.10;41.40;;;;;;11132970;26;20013;-41
2024/04/14 22:52:38;;;;;;;3.25;1.50;;;24.20;41.30;;;;;;11135992;26;20004;-42
2024/04/14 22:57:41;;;;;;;2.92;1.40;;;24.40;40.90;;;;;;11140080;26;20000;-42
2024/04/14 23:02:47;;;;;;;2.90;1.40;;;24.30;41.20;;;;;;11140505;26;20012;-41
2024/04/14 23:07:50;;;;;;;3.95;1.50;;;24.20;41.10;;;;;;11140028;26;20011;-41
2024/04/14 23:12:53;;;;;;;2.45;1.33;;;24.30;40.90;;;;;;11139732;26;20416;-44
2024/04/14 23:17:59;;;;;;;2.67;1.38;;;24.20;41.00;;;;;;11139573;26;20008;-42
2024/04/14 23:23:02;;;;;;;2.10;1.30;;;24.10;41.20;;;;;;11139583;26;20011;-44
2024/04/14 23:28:06;;;;;;;3.22;1.35;;;24.00;41.50;;;;;;11139567;26;20416;-42
2024/04/14 23:33:12;;;;;;;4.55;1.60;;;24.20;41.90;;;;;;11138585;26;20000;-42
2024/04/14 23:38:15;;;;;;;3.75;1.52;;;24.00;41.40;;;;;;11139327;26;20001;-41
2024/04/14 23:43:19;;;;;;;2.55;1.50;;;23.80;41.70;;;;;;11138865;26;20012;-42
2024/04/14 23:48:25;;;;;;;3.75;1.80;;;23.70;41.90;;;;;;11138627;26;20350;-41
2024/04/14 23:53:28;;;;;;;3.08;1.50;;;23.70;42.00;;;;;;11138335;26;20012;-42
2024/04/14 23:58:37;;;;;;;4.22;1.50;;;23.70;42.00;;;;;;11138322;26;20008;-41
